Latest Weather Observations for Ngukurr AWS

IDD60801

Issued at 9:05 am CST Friday 1 August 2014 (issued every 30 minutes, with the page automatically refreshed every 10 minutes)

About weather observations | Map of weather stations | Latest weather observations for NT | Other Formats
Station Details ID: 014299 Name: NGUKURR AIRPORT Lat: -14.72 Lon: 134.75 Height: 14.46 m
Data from the previous 72 hours. | See also: Recent months at Ngukurr AWS
Date/Time
CST
Temp
°C
App
Temp
°C
Dew
Point
Rel
Hum
%
Delta-T
°C
Wind Press
QNH
hPa
Press
MSL
hPa
Rain
since 9 am
mm
Dir
 
Spd
km/h
Gust
km/h
Spd
kts
Gust
kts
01/09:00am 23.5 25.8 19.4 78 2.6 S 6 11 3 6 1017.0 1017.0 0.0
01/08:30am 22.9 26.3 20.2 85 1.7 SE 2 6 1 3 1016.8 1016.8 0.0
01/08:00am 22.2 25.7 20.3 89 1.2 ESE 2 6 1 3 1016.5 - 0.0
01/07:30am 21.4 25.6 20.9 97 0.3 CALM 0 0 0 0 1016.1 1016.1 0.0
01/07:00am 21.2 25.0 20.9 98 0.2 SE 2 4 1 2 1016.1 - 0.0
01/06:30am 21.1 24.8 20.8 98 0.2 SE 2 4 1 2 1015.8 1015.8 0.0
01/06:00am 21.1 24.4 20.8 98 0.2 S 4 4 2 2 1015.6 1015.6 0.0
01/05:30am 21.0 24.3 20.7 98 0.2 S 4 6 2 3 1015.2 1015.2 0.0
01/05:00am 20.7 24.6 20.4 98 0.2 CALM 0 0 0 0 1014.9 - 0.0
01/04:30am 20.2 23.9 19.9 98 0.2 CALM 0 0 0 0 1014.5 1014.5 0.0
01/04:00am 20.4 23.4 20.1 98 0.2 NNE 4 6 2 3 1014.2 - 0.0
01/03:30am 19.6 22.9 19.1 97 0.3 CALM 0 0 0 0 1014.0 1014.0 0.0
01/03:00am 20.1 23.7 19.8 98 0.2 CALM 0 0 0 0 1014.1 1014.1 0.0
01/02:30am 20.5 23.7 19.7 95 0.5 ENE 2 2 1 1 1014.1 1014.1 0.0
01/02:00am 20.9 23.9 19.2 90 1.1 ENE 2 4 1 2 1014.3 - 0.0
01/01:30am 21.6 24.7 20.2 92 0.9 ENE 4 6 2 3 1014.5 1014.5 0.0
01/01:00am 22.0 24.8 20.5 91 1.0 ENE 6 9 3 5 1014.8 - 0.0
01/12:30am 22.1 24.8 20.2 89 1.2 ENE 6 9 3 5 1014.9 1014.9 0.0
01/12:00am 22.3 24.8 19.8 86 1.6 NE 6 9 3 5 1014.9 1014.9 0.0
 
Date/Time
CST
Temp
°C
App
Temp
°C
Dew
Point
Rel
Hum
%
Delta-T
°C
Wind Press
QNH
hPa
Press
MSL
hPa
Rain
since 9 am
mm
Dir
 
Spd
km/h
Gust
km/h
Spd
kts
Gust
kts
31/11:30pm 22.6 24.9 19.8 84 1.8 ENE 7 11 4 6 1015.0 1015.0 0.0
31/11:00pm 22.8 24.7 19.8 83 1.9 ENE 9 15 5 8 1015.0 - 0.0
31/10:30pm 22.9 25.0 19.3 80 2.3 NE 7 13 4 7 1015.1 1015.1 0.0
31/10:00pm 23.2 25.2 18.7 76 2.8 NE 6 9 3 5 1015.2 - 0.0
31/09:30pm 23.8 25.7 18.9 74 3.1 ENE 7 9 4 5 1014.9 1014.9 0.0
31/09:00pm 24.5 26.0 18.9 71 3.6 ENE 9 15 5 8 1014.7 1014.7 0.0
31/08:30pm 25.1 26.4 18.5 67 4.2 ENE 9 17 5 9 1014.5 1014.5 0.0
31/08:00pm 25.7 26.8 18.1 63 4.8 E 9 11 5 6 1014.1 - 0.0
31/07:30pm 26.3 27.1 17.4 58 5.6 E 9 13 5 7 1013.7 1013.7 0.0
31/07:00pm 27.2 27.4 16.8 53 6.5 E 11 15 6 8 1013.3 - 0.0
31/06:30pm 28.1 27.0 15.4 46 7.8 E 15 20 8 11 1013.1 1013.1 0.0
31/06:00pm 29.4 28.2 15.1 41 8.7 E 15 20 8 11 1012.8 1012.8 0.0
31/05:30pm 30.3 29.5 16.0 42 8.9 E 15 24 8 13 1012.6 1012.6 0.0
31/05:00pm 31.3 29.9 16.5 41 9.3 E 19 26 10 14 1012.4 - 0.0
31/04:30pm 32.3 31.5 14.0 33 11.1 ESE 11 19 6 10 1012.2 1012.2 0.0
31/04:00pm 32.7 32.2 13.8 31 11.5 SE 9 15 5 8 1012.3 - 0.0
31/03:30pm 32.9 32.9 13.5 30 11.7 S 6 17 3 9 1012.3 1012.3 0.0
31/03:00pm 32.9 33.6 14.5 33 11.3 NNW 4 15 2 8 1012.5 1012.5 0.0
31/02:30pm 32.4 31.4 14.5 33 11.0 E 13 20 7 11 1013.0 1013.0 0.0
31/02:00pm 32.0 31.4 14.6 34 10.7 E 11 26 6 14 1013.5 - 0.0
31/01:30pm 32.0 31.6 14.2 34 10.8 ENE 9 19 5 10 1014.1 1014.1 0.0
31/01:00pm 30.6 31.3 15.5 40 9.3 N 6 13 3 7 1014.8 - 0.0
31/12:30pm 30.5 30.9 15.4 40 9.3 N 7 15 4 8 1015.2 1015.2 0.0
31/12:00pm 30.1 30.8 16.1 42 8.7 N 7 13 4 7 1015.8 1015.8 0.0
31/11:30am 29.0 29.6 15.9 45 8.1 ENE 7 15 4 8 1016.3 1016.3 0.0
31/11:00am 27.7 28.8 15.7 48 7.4 S 4 9 2 5 1016.8 - 0.0
31/10:30am 26.6 29.0 17.9 59 5.5 ESE 2 6 1 3 1017.0 1017.0 0.0
31/10:00am 25.1 27.3 18.3 66 4.3 SW 4 7 2 4 1017.4 - 0.0
31/09:30am 23.6 26.0 18.9 75 3.0 SW 4 7 2 4 1017.3 1017.3 0.0
31/09:00am 22.1 24.6 19.1 83 1.9 SSW 4 7 2 4 1017.3 1017.3 0.0
31/08:30am 20.8 23.3 19.8 94 0.6 S 6 9 3 5 1017.2 1017.2 0.0
31/08:00am 19.9 23.4 19.6 98 0.2 CALM 0 0 0 0 1017.0 - 0.0
31/07:30am 19.4 22.7 19.1 98 0.2 CALM 0 0 0 0 1016.8 1016.8 0.0
31/07:00am 19.0 22.1 18.7 98 0.2 CALM 0 0 0 0 1016.6 - 0.0
31/06:30am 19.1 22.3 18.8 98 0.2 CALM 0 0 0 0 1016.3 1016.3 0.0
31/06:00am 18.9 22.0 18.6 98 0.2 CALM 0 0 0 0 1016.1 1016.1 0.0
31/05:30am 18.7 21.5 17.9 95 0.5 CALM 0 2 0 1 1015.9 1015.9 0.0
31/05:00am 19.1 21.3 16.5 85 1.6 CALM 0 0 0 0 1015.7 - 0.0
31/04:30am 18.3 19.8 15.7 85 1.5 SSE 2 4 1 2 1015.4 1015.4 0.0
31/04:00am 18.0 19.8 15.6 86 1.4 CALM 0 0 0 0 1015.4 - 0.0
31/03:30am 17.7 18.6 15.0 84 1.6 S 4 6 2 3 1015.3 1015.3 0.0
31/03:00am 17.8 18.2 14.7 82 1.8 S 6 7 3 4 1015.5 1015.5 0.0
31/02:30am 18.0 18.6 14.3 79 2.1 SSE 4 6 2 3 1015.4 1015.4 0.0
31/02:00am 18.1 18.5 13.8 76 2.5 S 4 6 2 3 1015.7 - 0.0
31/01:30am 18.2 19.2 13.1 72 2.9 CALM 0 0 0 0 1015.7 1015.7 0.0
31/01:00am 18.1 18.9 12.5 70 3.1 CALM 0 0 0 0 1015.8 - 0.0
31/12:30am 18.5 19.2 12.3 67 3.4 CALM 0 0 0 0 1015.8 1015.8 0.0
31/12:00am 18.9 19.6 12.2 65 3.7 CALM 0 4 0 2 1015.9 1015.9 0.0
 
Date/Time
CST
Temp
°C
App
Temp
°C
Dew
Point
Rel
Hum
%
Delta-T
°C
Wind Press
QNH
hPa
Press
MSL
hPa
Rain
since 9 am
mm
Dir
 
Spd
km/h
Gust
km/h
Spd
kts
Gust
kts
30/11:30pm 19.5 20.1 11.8 61 4.3 CALM 0 0 0 0 1015.9 1015.9 0.0
30/11:00pm 20.1 20.7 11.8 59 4.6 CALM 0 4 0 2 1016.1 - 0.0
30/10:30pm 20.4 19.9 11.9 58 4.7 S 6 7 3 4 1016.1 1016.1 0.0
30/10:00pm 20.8 20.5 11.4 55 5.2 ESE 4 4 2 2 1015.9 - 0.0
30/09:30pm 21.3 21.3 11.3 53 5.5 ESE 2 4 1 2 1015.8 1015.8 0.0
30/09:00pm 21.8 21.8 11.2 51 5.9 E 2 4 1 2 1015.8 1015.8 0.0
30/08:30pm 22.9 22.8 10.7 46 6.7 ENE 2 4 1 2 1015.5 1015.5 0.0
30/08:00pm 23.9 23.4 10.6 43 7.4 E 4 6 2 3 1015.2 - 0.0
30/07:30pm 25.2 24.4 11.0 41 8.0 E 6 7 3 4 1014.9 1014.9 0.0
30/07:00pm 26.1 25.0 10.7 38 8.6 E 7 9 4 5 1014.7 - 0.0
30/06:30pm 27.1 25.1 10.3 35 9.4 E 11 15 6 8 1014.5 1014.5 0.0
30/06:00pm 28.3 25.6 9.1 30 10.6 ENE 13 22 7 12 1014.3 1014.3 0.0
30/05:30pm 29.5 26.3 8.5 27 11.6 ENE 15 22 8 12 1014.2 1014.2 0.0
30/05:00pm 30.3 26.9 7.5 24 12.4 ENE 15 22 8 12 1014.0 - 0.0
30/04:30pm 30.9 26.5 6.7 22 13.0 E 19 30 10 16 1013.8 1013.8 0.0
30/04:00pm 31.1 26.8 6.9 22 13.1 ENE 19 28 10 15 1013.7 - 0.0
30/03:30pm 31.8 27.8 8.1 23 13.1 ENE 19 30 10 16 1013.6 1013.6 0.0
30/03:00pm 31.9 28.2 9.4 25 12.7 E 19 30 10 16 1013.7 1013.7 0.0
30/02:30pm 32.4 29.2 9.9 25 12.8 ENE 17 32 9 17 1013.9 1013.9 0.0
30/02:00pm 32.5 29.1 10.5 26 12.7 E 19 32 10 17 1014.3 - 0.0
30/01:30pm 32.0 29.5 11.2 28 12.1 E 15 28 8 15 1014.7 1014.7 0.0
30/01:00pm 31.9 28.8 11.7 29 11.8 E 19 28 10 15 1015.2 - 0.0
30/12:30pm 31.7 28.4 11.5 29 11.8 ENE 20 33 11 18 1015.7 1015.7 0.0
30/12:00pm 31.8 28.9 11.0 28 12.0 E 17 24 9 13 1016.2 1016.2 0.0
30/11:30am 30.3 27.6 10.3 29 11.4 ESE 15 24 8 13 1016.9 1016.9 0.0
30/11:00am 29.7 27.8 11.7 33 10.4 E 13 20 7 11 1017.4 - 0.0
30/10:30am 28.7 27.1 11.7 35 9.8 E 11 20 6 11 1017.8 1017.8 0.0
30/10:00am 27.0 25.7 12.6 41 8.4 ESE 11 15 6 8 1018.0 - 0.0
30/09:30am 25.3 25.8 15.0 53 6.2 ESE 6 9 3 5 1017.9 1017.9 0.0
30/09:00am 23.5 23.9 15.3 60 4.9 ESE 7 11 4 6 1018.1 1018.1 0.0
30/08:30am 22.1 24.4 16.8 72 3.2 CALM 0 0 0 0 1017.9 1017.9 0.0
30/08:00am 19.8 22.0 17.4 86 1.5 N 2 4 1 2 1017.7 - 0.0
30/07:30am 17.3 18.8 16.7 96 0.4 NNW 4 4 2 2 1017.4 1017.4 0.0
30/07:00am 16.3 18.3 16.0 98 0.2 CALM 0 0 0 0 1017.0 - 0.0
30/06:30am 16.0 17.6 15.0 94 0.6 CALM 0 0 0 0 1016.8 1016.8 0.0
30/06:00am 16.3 18.3 16.0 98 0.2 CALM 0 0 0 0 1016.6 1016.6 0.0
30/05:30am 16.3 17.8 14.7 90 0.9 CALM 0 0 0 0 1016.5 1016.5 0.0
30/05:00am 16.8 18.9 16.3 97 0.3 CALM 0 0 0 0 1016.3 - 0.0
30/04:30am 16.6 18.0 14.4 87 1.3 CALM 0 0 0 0 1016.2 1016.2 0.0
30/04:00am 16.8 18.3 14.6 87 1.3 CALM 0 0 0 0 1016.0 - 0.0
30/03:30am 17.1 18.7 14.9 87 1.3 CALM 0 0 0 0 1015.9 1015.9 0.0
30/03:00am 17.5 18.8 14.2 81 1.9 CALM 0 0 0 0 1016.1 1016.1 0.0
30/02:30am 17.8 19.2 14.3 80 2.0 CALM 0 0 0 0 1016.2 1016.2 0.0
30/02:00am 18.5 19.4 15.0 80 2.0 S 4 4 2 2 1016.4 - 0.0
30/01:30am 18.5 19.4 15.0 80 2.0 SSE 4 6 2 3 1016.7 1016.7 0.0
30/01:00am 18.8 19.4 14.3 75 2.6 SSE 4 4 2 2 1016.9 - 0.0
30/12:30am 19.4 20.5 14.6 74 2.8 SE 2 4 1 2 1017.0 1017.0 0.0
30/12:00am 19.8 20.2 14.8 73 2.9 SSE 6 7 3 4 1017.0 1017.0 0.0
 
Date/Time
CST
Temp
°C
App
Temp
°C
Dew
Point
Rel
Hum
%
Delta-T
°C
Wind Press
QNH
hPa
Press
MSL
hPa
Rain
since 9 am
mm
Dir
 
Spd
km/h
Gust
km/h
Spd
kts
Gust
kts
29/11:30pm 19.5 19.6 13.9 70 3.2 SSE 6 6 3 3 1017.0 1017.0 0.0
29/11:00pm 19.6 19.9 13.3 67 3.6 SSE 4 6 2 3 1016.9 - 0.0
29/10:30pm 19.9 20.9 13.1 65 3.9 CALM 0 0 0 0 1017.0 1017.0 0.0
29/10:00pm 20.2 21.1 12.9 63 4.1 CALM 0 0 0 0 1016.9 - 0.0
29/09:30pm 21.1 21.9 12.5 58 4.9 CALM 0 0 0 0 1016.9 1016.9 0.0
29/09:00pm 21.8 22.4 13.2 58 4.9 E 2 2 1 1 1016.7 1016.7 0.0
29/08:30pm 22.3 22.3 12.5 53 5.6 E 4 4 2 2 1016.6 1016.6 0.0
29/08:00pm 23.3 23.5 12.0 49 6.4 E 2 4 1 2 1016.6 - 0.0
29/07:30pm 25.1 25.3 13.0 47 7.0 E 4 4 2 2 1016.4 1016.4 0.0
29/07:00pm 25.8 24.9 12.6 44 7.6 E 9 11 5 6 1016.1 - 0.0
29/06:30pm 26.5 26.0 12.5 41 8.1 E 7 11 4 6 1015.8 1015.8 0.0
29/06:00pm 27.6 25.4 12.0 38 9.0 E 15 22 8 12 1015.5 1015.5 0.0
29/05:30pm 28.5 25.5 12.0 36 9.6 E 19 30 10 16 1015.3 1015.3 0.0
29/05:00pm 29.4 26.4 11.9 34 10.2 ENE 19 28 10 15 1015.1 - 0.0
29/04:30pm 30.0 27.0 12.0 33 10.5 ENE 19 30 10 16 1014.9 1014.9 0.0
29/04:00pm 30.7 27.2 12.1 32 10.9 NE 22 30 12 16 1014.7 - 0.0
29/03:30pm 31.0 27.8 11.9 31 11.2 E 20 33 11 18 1014.7 1014.7 0.0
29/03:00pm 31.3 27.8 12.2 31 11.2 E 22 35 12 19 1014.9 1014.9 0.0
29/02:30pm 31.3 27.1 11.1 29 11.7 E 24 35 13 19 1015.0 1015.0 0.0
29/02:00pm 31.9 28.8 11.7 29 11.8 ESE 19 26 10 14 1015.3 - 0.0
29/01:30pm 31.5 28.5 11.8 30 11.5 ESE 19 30 10 16 1015.9 1015.9 0.0
29/01:00pm 30.6 27.8 12.5 33 10.7 ESE 19 32 10 17 1016.4 - 0.0
29/12:30pm 31.2 28.5 13.0 33 10.8 ESE 19 28 10 15 1016.8 1016.8 0.0
29/12:00pm 30.7 28.8 13.0 33 10.5 ESE 15 22 8 12 1017.3 1017.3 0.0
29/11:30am 30.0 28.2 13.3 36 9.9 ESE 15 22 8 12 1017.7 1017.7 0.0
29/11:00am 29.3 28.2 14.3 40 9.1 E 13 20 7 11 1018.1 - 0.0
29/10:30am 27.6 27.3 14.3 44 8.0 ESE 9 17 5 9 1018.5 1018.5 0.0
29/10:00am 26.4 26.6 14.8 49 7.0 SE 7 17 4 9 1018.7 - 0.0
29/09:30am 24.8 25.5 17.0 62 4.8 SE 9 15 5 8 1018.9 1018.9 0.0

Other Formats:

Comma delimited format used in spreadsheet applications
http://www.bom.gov.au/fwo/IDD60801/IDD60801.94106.axf

JavaScript Object Notation format (JSON) in row-major order
http://www.bom.gov.au/fwo/IDD60801/IDD60801.94106.json